sensor_id;sensor_type;location;lat;lon;timestamp;P1;durP1;ratioP1;P2;durP2;ratioP2
79539;SDS011;74475;52.122;5.406;2023-12-28T14:48:04;4.38;;;1.33;;
79539;SDS011;74475;52.122;5.406;2023-12-28T14:50:31;5.22;;;1.38;;
79539;SDS011;74475;52.122;5.406;2023-12-28T14:52:58;3.92;;;1.30;;
79539;SDS011;74475;52.122;5.406;2023-12-28T14:55:24;3.17;;;1.20;;
79539;SDS011;74475;52.122;5.406;2023-12-28T14:57:51;7.50;;;1.40;;
79539;SDS011;74475;52.122;5.406;2023-12-28T15:00:17;5.65;;;1.95;;
79539;SDS011;74475;52.122;5.406;2023-12-28T15:02:44;4.80;;;1.13;;
79539;SDS011;74475;52.122;5.406;2023-12-28T15:05:10;4.97;;;1.67;;
79539;SDS011;74475;52.122;5.406;2023-12-28T15:07:39;6.15;;;1.58;;
79539;SDS011;74475;52.122;5.406;2023-12-28T15:10:06;5.75;;;1.95;;
79539;SDS011;74475;52.122;5.406;2023-12-28T15:12:34;5.82;;;1.75;;
79539;SDS011;74475;52.122;5.406;2023-12-28T15:15:01;6.15;;;1.55;;
79539;SDS011;74475;52.122;5.406;2023-12-28T15:17:28;7.47;;;1.85;;
79539;SDS011;74475;52.122;5.406;2023-12-28T15:19:55;5.78;;;1.45;;
79539;SDS011;74475;52.122;5.406;2023-12-28T15:22:22;11.85;;;1.52;;
79539;SDS011;74475;52.122;5.406;2023-12-28T15:24:48;5.95;;;1.90;;
79539;SDS011;74475;52.122;5.406;2023-12-28T15:27:15;5.00;;;1.30;;
79539;SDS011;74475;52.122;5.406;2023-12-28T15:29:42;3.00;;;1.15;;
79539;SDS011;74475;52.122;5.406;2023-12-28T15:32:08;6.45;;;1.25;;
79539;SDS011;74475;52.122;5.406;2023-12-28T15:34:35;3.20;;;1.13;;
79539;SDS011;74475;52.122;5.406;2023-12-28T15:37:02;3.97;;;1.33;;
79539;SDS011;74475;52.122;5.406;2023-12-28T15:39:29;5.03;;;1.30;;
79539;SDS011;74475;52.122;5.406;2023-12-28T15:41:55;5.55;;;1.48;;
79539;SDS011;74475;52.122;5.406;2023-12-28T15:44:22;4.18;;;1.60;;
79539;SDS011;74475;52.122;5.406;2023-12-28T15:46:48;3.05;;;0.98;;
79539;SDS011;74475;52.122;5.406;2023-12-28T15:49:15;4.45;;;1.48;;
79539;SDS011;74475;52.122;5.406;2023-12-28T15:51:42;6.20;;;1.70;;
79539;SDS011;74475;52.122;5.406;2023-12-28T15:54:08;3.88;;;1.20;;
79539;SDS011;74475;52.122;5.406;2023-12-28T15:56:35;5.88;;;1.27;;
79539;SDS011;74475;52.122;5.406;2023-12-28T15:59:01;4.20;;;1.33;;
79539;SDS011;74475;52.122;5.406;2023-12-28T16:01:28;3.42;;;1.17;;
79539;SDS011;74475;52.122;5.406;2023-12-28T16:03:55;3.90;;;1.60;;
79539;SDS011;74475;52.122;5.406;2023-12-28T16:06:22;6.03;;;1.25;;
79539;SDS011;74475;52.122;5.406;2023-12-28T16:08:48;4.32;;;1.05;;
79539;SDS011;74475;52.122;5.406;2023-12-28T16:11:15;3.75;;;1.15;;
79539;SDS011;74475;52.122;5.406;2023-12-28T16:13:41;4.78;;;1.10;;
79539;SDS011;74475;52.122;5.406;2023-12-28T16:16:10;4.88;;;1.63;;
79539;SDS011;74475;52.122;5.406;2023-12-28T16:18:37;3.90;;;1.05;;
79539;SDS011;74475;52.122;5.406;2023-12-28T16:21:05;5.95;;;1.20;;
79539;SDS011;74475;52.122;5.406;2023-12-28T16:23:32;3.78;;;1.40;;
79539;SDS011;74475;52.122;5.406;2023-12-28T16:25:58;4.25;;;1.15;;
79539;SDS011;74475;52.122;5.406;2023-12-28T16:28:25;4.25;;;1.20;;
79539;SDS011;74475;52.122;5.406;2023-12-28T16:30:52;6.47;;;1.33;;
79539;SDS011;74475;52.122;5.406;2023-12-28T16:33:18;2.92;;;1.30;;
79539;SDS011;74475;52.122;5.406;2023-12-28T16:35:45;5.60;;;1.50;;
79539;SDS011;74475;52.122;5.406;2023-12-28T16:38:11;7.97;;;1.48;;
79539;SDS011;74475;52.122;5.406;2023-12-28T16:40:38;2.92;;;1.30;;
79539;SDS011;74475;52.122;5.406;2023-12-28T16:43:04;5.22;;;1.50;;
79539;SDS011;74475;52.122;5.406;2023-12-28T16:45:31;2.92;;;1.05;;
79539;SDS011;74475;52.122;5.406;2023-12-28T16:47:57;10.32;;;3.58;;
79539;SDS011;74475;52.122;5.406;2023-12-28T16:50:24;9.93;;;3.72;;
79539;SDS011;74475;52.122;5.406;2023-12-28T16:52:52;5.82;;;3.33;;
79539;SDS011;74475;52.122;5.406;2023-12-28T16:55:20;6.82;;;2.97;;
79539;SDS011;74475;52.122;5.406;2023-12-28T16:57:46;9.27;;;2.97;;
79539;SDS011;74475;52.122;5.406;2023-12-28T17:00:13;7.60;;;3.22;;
79539;SDS011;74475;52.122;5.406;2023-12-28T17:02:40;10.82;;;3.00;;
79539;SDS011;74475;52.122;5.406;2023-12-28T17:05:07;12.27;;;2.97;;
79539;SDS011;74475;52.122;5.406;2023-12-28T17:07:37;10.77;;;2.97;;
79539;SDS011;74475;52.122;5.406;2023-12-28T17:10:03;11.80;;;3.45;;
79539;SDS011;74475;52.122;5.406;2023-12-28T17:12:34;8.80;;;2.53;;
79539;SDS011;74475;52.122;5.406;2023-12-28T17:15:05;5.93;;;2.10;;
79539;SDS011;74475;52.122;5.406;2023-12-28T17:17:34;9.70;;;2.47;;
79539;SDS011;74475;52.122;5.406;2023-12-28T17:20:01;7.97;;;2.63;;
79539;SDS011;74475;52.122;5.406;2023-12-28T17:22:33;7.90;;;2.78;;
79539;SDS011;74475;52.122;5.406;2023-12-28T17:25:07;7.88;;;2.45;;
79539;SDS011;74475;52.122;5.406;2023-12-28T17:27:53;8.50;;;2.33;;
79539;SDS011;74475;52.122;5.406;2023-12-28T17:30:25;5.45;;;2.38;;
79539;SDS011;74475;52.122;5.406;2023-12-28T17:32:53;8.85;;;2.08;;
79539;SDS011;74475;52.122;5.406;2023-12-28T17:35:21;7.93;;;2.35;;
79539;SDS011;74475;52.122;5.406;2023-12-28T17:37:47;7.32;;;2.40;;
79539;SDS011;74475;52.122;5.406;2023-12-28T17:40:14;6.43;;;2.10;;
79539;SDS011;74475;52.122;5.406;2023-12-28T17:42:43;7.53;;;2.50;;
79539;SDS011;74475;52.122;5.406;2023-12-28T17:45:13;6.68;;;1.92;;
79539;SDS011;74475;52.122;5.406;2023-12-28T17:48:15;5.03;;;1.60;;
79539;SDS011;74475;52.122;5.406;2023-12-28T17:50:35;4.15;;;1.73;;
79539;SDS011;74475;52.122;5.406;2023-12-28T17:53:04;6.97;;;2.13;;
79539;SDS011;74475;52.122;5.406;2023-12-28T17:55:31;7.18;;;1.88;;
79539;SDS011;74475;52.122;5.406;2023-12-28T17:57:58;4.28;;;1.40;;
79539;SDS011;74475;52.122;5.406;2023-12-28T18:00:25;6.22;;;1.80;;
79539;SDS011;74475;52.122;5.406;2023-12-28T18:02:52;5.07;;;2.00;;
79539;SDS011;74475;52.122;5.406;2023-12-28T18:05:18;3.92;;;1.85;;
79539;SDS011;74475;52.122;5.406;2023-12-28T18:07:45;5.57;;;1.50;;
79539;SDS011;74475;52.122;5.406;2023-12-28T18:10:11;4.03;;;1.58;;
79539;SDS011;74475;52.122;5.406;2023-12-28T18:12:38;6.28;;;2.17;;
79539;SDS011;74475;52.122;5.406;2023-12-28T18:15:04;6.40;;;1.90;;
79539;SDS011;74475;52.122;5.406;2023-12-28T18:17:31;7.72;;;2.22;;
79539;SDS011;74475;52.122;5.406;2023-12-28T18:19:57;3.35;;;1.70;;
79539;SDS011;74475;52.122;5.406;2023-12-28T18:22:24;4.70;;;1.90;;
79539;SDS011;74475;52.122;5.406;2023-12-28T18:24:51;7.15;;;1.63;;
79539;SDS011;74475;52.122;5.406;2023-12-28T18:27:17;6.00;;;2.00;;
79539;SDS011;74475;52.122;5.406;2023-12-28T18:29:44;4.95;;;1.40;;
79539;SDS011;74475;52.122;5.406;2023-12-28T18:32:16;4.78;;;1.30;;
79539;SDS011;74475;52.122;5.406;2023-12-28T18:34:46;5.45;;;1.60;;
79539;SDS011;74475;52.122;5.406;2023-12-28T18:37:15;6.00;;;2.05;;
79539;SDS011;74475;52.122;5.406;2023-12-28T18:39:42;4.80;;;1.52;;
79539;SDS011;74475;52.122;5.406;2023-12-28T18:42:09;6.03;;;1.52;;
79539;SDS011;74475;52.122;5.406;2023-12-28T18:44:35;4.78;;;1.52;;
79539;SDS011;74475;52.122;5.406;2023-12-28T18:47:03;4.65;;;1.45;;
79539;SDS011;74475;52.122;5.406;2023-12-28T18:49:30;3.45;;;1.40;;
79539;SDS011;74475;52.122;5.406;2023-12-28T18:51:58;7.72;;;1.80;;
79539;SDS011;74475;52.122;5.406;2023-12-28T18:54:25;4.57;;;2.05;;
79539;SDS011;74475;52.122;5.406;2023-12-28T18:56:52;2.83;;;1.05;;
79539;SDS011;74475;52.122;5.406;2023-12-28T18:59:18;4.75;;;1.60;;
79539;SDS011;74475;52.122;5.406;2023-12-28T19:01:45;5.22;;;1.52;;
79539;SDS011;74475;52.122;5.406;2023-12-28T19:04:12;3.20;;;1.35;;
79539;SDS011;74475;52.122;5.406;2023-12-28T19:06:40;6.13;;;1.40;;
79539;SDS011;74475;52.122;5.406;2023-12-28T19:09:06;6.30;;;1.70;;
79539;SDS011;74475;52.122;5.406;2023-12-28T19:11:33;8.80;;;1.42;;
79539;SDS011;74475;52.122;5.406;2023-12-28T19:13:59;4.47;;;1.42;;
79539;SDS011;74475;52.122;5.406;2023-12-28T19:16:26;3.92;;;1.73;;
79539;SDS011;74475;52.122;5.406;2023-12-28T19:18:52;5.30;;;1.30;;
79539;SDS011;74475;52.122;5.406;2023-12-28T19:21:19;4.88;;;1.60;;
79539;SDS011;74475;52.122;5.406;2023-12-28T19:23:47;5.63;;;1.30;;
79539;SDS011;74475;52.122;5.406;2023-12-28T19:26:14;4.55;;;1.30;;
79539;SDS011;74475;52.122;5.406;2023-12-28T19:28:43;4.60;;;1.38;;
79539;SDS011;74475;52.122;5.406;2023-12-28T19:31:09;5.25;;;1.38;;
79539;SDS011;74475;52.122;5.406;2023-12-28T19:33:36;3.92;;;1.38;;
79539;SDS011;74475;52.122;5.406;2023-12-28T19:36:03;4.05;;;1.60;;
79539;SDS011;74475;52.122;5.406;2023-12-28T19:38:29;3.88;;;1.38;;
79539;SDS011;74475;52.122;5.406;2023-12-28T19:40:56;4.40;;;1.55;;
79539;SDS011;74475;52.122;5.406;2023-12-28T19:43:22;3.67;;;1.67;;
79539;SDS011;74475;52.122;5.406;2023-12-28T19:45:49;6.90;;;1.65;;
79539;SDS011;74475;52.122;5.406;2023-12-28T19:48:15;3.15;;;1.10;;
79539;SDS011;74475;52.122;5.406;2023-12-28T19:50:42;5.00;;;1.30;;
79539;SDS011;74475;52.122;5.406;2023-12-28T19:53:09;5.88;;;1.58;;
79539;SDS011;74475;52.122;5.406;2023-12-28T19:55:40;3.83;;;1.23;;
79539;SDS011;74475;52.122;5.406;2023-12-28T19:58:07;3.70;;;1.10;;
79539;SDS011;74475;52.122;5.406;2023-12-28T20:00:34;4.57;;;1.67;;
79539;SDS011;74475;52.122;5.406;2023-12-28T20:03:01;3.53;;;1.33;;
79539;SDS011;74475;52.122;5.406;2023-12-28T20:07:58;4.18;;;1.17;;
79539;SDS011;74475;52.122;5.406;2023-12-28T20:10:27;4.38;;;1.50;;
79539;SDS011;74475;52.122;5.406;2023-12-28T20:12:56;5.20;;;1.45;;
79539;SDS011;74475;52.122;5.406;2023-12-28T20:15:23;4.78;;;0.93;;
79539;SDS011;74475;52.122;5.406;2023-12-28T20:17:50;5.00;;;1.40;;
79539;SDS011;74475;52.122;5.406;2023-12-28T20:20:17;3.50;;;1.33;;
79539;SDS011;74475;52.122;5.406;2023-12-28T20:22:44;4.25;;;1.00;;
79539;SDS011;74475;52.122;5.406;2023-12-28T20:25:12;3.75;;;1.52;;
79539;SDS011;74475;52.122;5.406;2023-12-28T20:27:39;4.82;;;1.27;;
79539;SDS011;74475;52.122;5.406;2023-12-28T20:30:05;5.05;;;1.40;;
79539;SDS011;74475;52.122;5.406;2023-12-28T20:32:32;4.60;;;1.27;;
79539;SDS011;74475;52.122;5.406;2023-12-28T20:34:59;4.43;;;1.30;;
79539;SDS011;74475;52.122;5.406;2023-12-28T20:37:26;5.03;;;1.63;;
79539;SDS011;74475;52.122;5.406;2023-12-28T20:39:52;7.82;;;1.80;;
79539;SDS011;74475;52.122;5.406;2023-12-28T20:42:18;3.97;;;1.08;;
79539;SDS011;74475;52.122;5.406;2023-12-28T20:44:46;4.72;;;1.17;;
79539;SDS011;74475;52.122;5.406;2023-12-28T20:47:12;4.13;;;1.30;;
79539;SDS011;74475;52.122;5.406;2023-12-28T20:49:39;4.70;;;1.23;;
79539;SDS011;74475;52.122;5.406;2023-12-28T20:52:12;4.70;;;1.38;;
79539;SDS011;74475;52.122;5.406;2023-12-28T20:54:39;4.13;;;1.27;;
79539;SDS011;74475;52.122;5.406;2023-12-28T20:57:05;5.13;;;1.52;;
79539;SDS011;74475;52.122;5.406;2023-12-28T20:59:32;4.00;;;1.35;;
79539;SDS011;74475;52.122;5.406;2023-12-28T21:01:58;3.90;;;1.15;;
79539;SDS011;74475;52.122;5.406;2023-12-28T21:04:24;3.00;;;1.20;;
79539;SDS011;74475;52.122;5.406;2023-12-28T21:06:51;3.40;;;1.45;;
79539;SDS011;74475;52.122;5.406;2023-12-28T21:09:17;3.80;;;1.27;;
79539;SDS011;74475;52.122;5.406;2023-12-28T21:11:44;4.53;;;1.50;;
79539;SDS011;74475;52.122;5.406;2023-12-28T21:14:11;5.22;;;1.00;;
79539;SDS011;74475;52.122;5.406;2023-12-28T21:17:41;4.85;;;1.02;;
79539;SDS011;74475;52.122;5.406;2023-12-28T21:20:08;4.43;;;1.23;;
79539;SDS011;74475;52.122;5.406;2023-12-28T21:22:38;5.53;;;0.95;;
79539;SDS011;74475;52.122;5.406;2023-12-28T21:25:05;3.25;;;0.93;;
79539;SDS011;74475;52.122;5.406;2023-12-28T21:33:39;3.85;;;1.27;;
79539;SDS011;74475;52.122;5.406;2023-12-28T21:36:08;3.38;;;0.93;;
79539;SDS011;74475;52.122;5.406;2023-12-28T21:38:35;3.83;;;1.15;;
79539;SDS011;74475;52.122;5.406;2023-12-28T21:41:01;4.82;;;1.15;;
79539;SDS011;74475;52.122;5.406;2023-12-28T21:43:29;6.07;;;1.35;;
79539;SDS011;74475;52.122;5.406;2023-12-28T21:45:56;3.22;;;0.90;;
79539;SDS011;74475;52.122;5.406;2023-12-28T21:48:23;4.28;;;1.00;;
79539;SDS011;74475;52.122;5.406;2023-12-28T21:50:50;5.07;;;0.85;;
79539;SDS011;74475;52.122;5.406;2023-12-28T21:53:16;4.18;;;1.20;;
79539;SDS011;74475;52.122;5.406;2023-12-28T21:55:43;3.22;;;1.10;;
79539;SDS011;74475;52.122;5.406;2023-12-28T21:58:09;3.38;;;1.20;;
79539;SDS011;74475;52.122;5.406;2023-12-28T22:00:36;3.22;;;1.40;;
79539;SDS011;74475;52.122;5.406;2023-12-28T22:03:02;4.22;;;1.40;;
79539;SDS011;74475;52.122;5.406;2023-12-28T22:05:29;3.95;;;1.60;;
79539;SDS011;74475;52.122;5.406;2023-12-28T22:07:55;5.78;;;1.13;;
79539;SDS011;74475;52.122;5.406;2023-12-28T22:10:22;3.75;;;1.13;;
79539;SDS011;74475;52.122;5.406;2023-12-28T22:12:49;3.05;;;0.70;;
79539;SDS011;74475;52.122;5.406;2023-12-28T22:15:15;3.70;;;1.13;;
79539;SDS011;74475;52.122;5.406;2023-12-28T22:17:42;5.43;;;0.98;;
79539;SDS011;74475;52.122;5.406;2023-12-28T22:20:08;3.97;;;1.10;;
79539;SDS011;74475;52.122;5.406;2023-12-28T22:22:35;3.88;;;1.17;;
79539;SDS011;74475;52.122;5.406;2023-12-28T22:25:02;3.65;;;1.10;;
79539;SDS011;74475;52.122;5.406;2023-12-28T22:27:29;3.55;;;0.80;;
79539;SDS011;74475;52.122;5.406;2023-12-28T22:29:55;5.72;;;1.27;;
79539;SDS011;74475;52.122;5.406;2023-12-28T22:32:22;4.68;;;1.00;;
79539;SDS011;74475;52.122;5.406;2023-12-28T22:34:49;3.00;;;1.10;;
79539;SDS011;74475;52.122;5.406;2023-12-28T22:37:15;3.55;;;1.10;;
79539;SDS011;74475;52.122;5.406;2023-12-28T22:39:42;3.35;;;0.75;;
79539;SDS011;74475;52.122;5.406;2023-12-28T22:42:09;3.05;;;0.88;;
79539;SDS011;74475;52.122;5.406;2023-12-28T22:44:37;2.83;;;1.00;;
